KMBY

Omar N Bradley Airport

Moberly, Missouri, USA
METAR KMBY 201915Z AUTO 31018G26KT 10SM CLR 17/M02 A3020 RMK AO2
Observed Flight Rules
Oct-20 @ 19:15 UTC (7 minutes ago) Visual Flight Rules
Wind Visibility Clouds
310° at 18 knots
 Gusting to 26 knots
10 miles
  • Clear skies
Temperatures Readings
Current 17°C / 63°F
Dewpoint -2°C / 28°F
Humidity 27%
Altimeter 30.2" Hg
Pressure 1023 hPa
Elevation 264
METAR KMBY 201915Z AUTO 31018G26KT 10SM CLR 17/M02 A3020 RMK AO2
Observed Flight Rules
Oct-20 @ 19:15 UTC
(7 minutes ago)
VFR
Wind Visibility
310° at 18 knots
 Gusting to 26 knots
10 miles
Clouds
  • Clear skies
Temperature Dewpoint
17°C / 63°F -2°C / 28°F
Humidity Altimeter Pressure
27% 30.2" Hg 1023 hPa